sensor_id;sensor_type;location;lat;lon;timestamp;temperature;humidity
39219;DHT22;24934;52.752;6.964;2023-04-22T00:02:08;9.80;99.90
39219;DHT22;24934;52.752;6.964;2023-04-22T00:04:34;9.70;99.90
39219;DHT22;24934;52.752;6.964;2023-04-22T00:07:01;9.60;99.90
39219;DHT22;24934;52.752;6.964;2023-04-22T00:09:27;9.60;99.90
39219;DHT22;24934;52.752;6.964;2023-04-22T00:11:52;9.80;99.90
39219;DHT22;24934;52.752;6.964;2023-04-22T00:14:18;9.70;99.90
39219;DHT22;24934;52.752;6.964;2023-04-22T00:16:43;9.60;99.90
39219;DHT22;24934;52.752;6.964;2023-04-22T00:19:09;9.50;99.90
39219;DHT22;24934;52.752;6.964;2023-04-22T00:21:35;9.40;99.90
39219;DHT22;24934;52.752;6.964;2023-04-22T00:24:01;9.30;99.90
39219;DHT22;24934;52.752;6.964;2023-04-22T00:26:27;9.30;99.90
39219;DHT22;24934;52.752;6.964;2023-04-22T00:28:52;9.30;99.90
39219;DHT22;24934;52.752;6.964;2023-04-22T00:31:18;9.30;99.90
39219;DHT22;24934;52.752;6.964;2023-04-22T00:33:44;9.40;99.90
39219;DHT22;24934;52.752;6.964;2023-04-22T00:36:09;9.50;99.90
39219;DHT22;24934;52.752;6.964;2023-04-22T00:38:35;9.50;99.90
39219;DHT22;24934;52.752;6.964;2023-04-22T00:41:04;9.40;99.90
39219;DHT22;24934;52.752;6.964;2023-04-22T00:43:30;9.40;99.90
39219;DHT22;24934;52.752;6.964;2023-04-22T00:45:59;9.20;99.90
39219;DHT22;24934;52.752;6.964;2023-04-22T00:48:25;9.20;99.90
39219;DHT22;24934;52.752;6.964;2023-04-22T00:50:51;9.10;99.90
39219;DHT22;24934;52.752;6.964;2023-04-22T00:53:16;9.10;99.90
39219;DHT22;24934;52.752;6.964;2023-04-22T00:55:42;9.00;99.90
39219;DHT22;24934;52.752;6.964;2023-04-22T00:58:09;9.00;99.90
39219;DHT22;24934;52.752;6.964;2023-04-22T01:00:35;9.00;99.90
39219;DHT22;24934;52.752;6.964;2023-04-22T01:03:01;9.00;99.90
39219;DHT22;24934;52.752;6.964;2023-04-22T01:05:30;8.90;99.90
39219;DHT22;24934;52.752;6.964;2023-04-22T01:07:56;8.90;99.90
39219;DHT22;24934;52.752;6.964;2023-04-22T01:10:22;8.80;99.90
39219;DHT22;24934;52.752;6.964;2023-04-22T01:12:48;8.80;99.90
39219;DHT22;24934;52.752;6.964;2023-04-22T01:15:13;8.80;99.90
39219;DHT22;24934;52.752;6.964;2023-04-22T01:17:39;8.80;99.90
39219;DHT22;24934;52.752;6.964;2023-04-22T01:20:05;8.80;99.90
39219;DHT22;24934;52.752;6.964;2023-04-22T01:22:36;8.80;99.90
39219;DHT22;24934;52.752;6.964;2023-04-22T01:25:07;8.80;99.90
39219;DHT22;24934;52.752;6.964;2023-04-22T01:27:34;8.80;99.90
39219;DHT22;24934;52.752;6.964;2023-04-22T01:30:00;8.80;99.90
39219;DHT22;24934;52.752;6.964;2023-04-22T01:32:26;8.70;99.90
39219;DHT22;24934;52.752;6.964;2023-04-22T01:34:54;8.60;99.90
39219;DHT22;24934;52.752;6.964;2023-04-22T01:37:20;8.60;99.90
39219;DHT22;24934;52.752;6.964;2023-04-22T01:39:46;8.60;99.90
39219;DHT22;24934;52.752;6.964;2023-04-22T01:42:12;8.50;99.90
39219;DHT22;24934;52.752;6.964;2023-04-22T01:44:38;8.50;99.90
39219;DHT22;24934;52.752;6.964;2023-04-22T01:47:03;8.40;99.90
39219;DHT22;24934;52.752;6.964;2023-04-22T01:49:29;8.30;99.90
39219;DHT22;24934;52.752;6.964;2023-04-22T01:51:57;8.40;99.90
39219;DHT22;24934;52.752;6.964;2023-04-22T01:54:22;8.50;99.90
39219;DHT22;24934;52.752;6.964;2023-04-22T01:56:54;8.50;99.90
39219;DHT22;24934;52.752;6.964;2023-04-22T01:59:20;8.30;99.90
39219;DHT22;24934;52.752;6.964;2023-04-22T02:01:46;8.20;99.90
39219;DHT22;24934;52.752;6.964;2023-04-22T02:04:12;8.20;99.90
39219;DHT22;24934;52.752;6.964;2023-04-22T02:06:38;8.10;99.90
39219;DHT22;24934;52.752;6.964;2023-04-22T02:09:04;8.00;99.90
39219;DHT22;24934;52.752;6.964;2023-04-22T02:11:29;8.00;99.90
39219;DHT22;24934;52.752;6.964;2023-04-22T02:13:55;7.90;99.90
39219;DHT22;24934;52.752;6.964;2023-04-22T02:16:21;8.00;99.90
39219;DHT22;24934;52.752;6.964;2023-04-22T02:18:47;8.00;99.90
39219;DHT22;24934;52.752;6.964;2023-04-22T02:21:13;8.00;99.90
39219;DHT22;24934;52.752;6.964;2023-04-22T02:23:38;8.00;99.90
39219;DHT22;24934;52.752;6.964;2023-04-22T02:26:04;8.10;99.90
39219;DHT22;24934;52.752;6.964;2023-04-22T02:28:30;8.00;99.90
39219;DHT22;24934;52.752;6.964;2023-04-22T02:30:56;7.90;99.90
39219;DHT22;24934;52.752;6.964;2023-04-22T02:33:22;7.90;99.90
39219;DHT22;24934;52.752;6.964;2023-04-22T02:35:48;7.80;99.90
39219;DHT22;24934;52.752;6.964;2023-04-22T02:38:13;7.70;99.90
39219;DHT22;24934;52.752;6.964;2023-04-22T02:40:40;7.70;99.90
39219;DHT22;24934;52.752;6.964;2023-04-22T02:43:06;7.70;99.90
39219;DHT22;24934;52.752;6.964;2023-04-22T02:45:32;7.70;99.90
39219;DHT22;24934;52.752;6.964;2023-04-22T02:48:00;8.00;99.90
39219;DHT22;24934;52.752;6.964;2023-04-22T02:50:26;8.00;99.90
39219;DHT22;24934;52.752;6.964;2023-04-22T02:52:51;8.10;99.90
39219;DHT22;24934;52.752;6.964;2023-04-22T02:55:17;8.10;99.90
39219;DHT22;24934;52.752;6.964;2023-04-22T02:57:43;8.20;99.90
39219;DHT22;24934;52.752;6.964;2023-04-22T03:00:12;8.20;99.90
39219;DHT22;24934;52.752;6.964;2023-04-22T03:02:38;8.20;99.90
39219;DHT22;24934;52.752;6.964;2023-04-22T03:05:03;8.10;99.90
39219;DHT22;24934;52.752;6.964;2023-04-22T03:07:29;8.10;99.90
39219;DHT22;24934;52.752;6.964;2023-04-22T03:09:55;8.10;99.90
39219;DHT22;24934;52.752;6.964;2023-04-22T03:12:21;8.10;99.90
39219;DHT22;24934;52.752;6.964;2023-04-22T03:14:46;8.10;99.90
39219;DHT22;24934;52.752;6.964;2023-04-22T03:17:12;8.10;99.90
39219;DHT22;24934;52.752;6.964;2023-04-22T03:19:37;8.10;99.90
39219;DHT22;24934;52.752;6.964;2023-04-22T03:22:03;8.00;99.90
39219;DHT22;24934;52.752;6.964;2023-04-22T03:24:29;8.00;99.90
39219;DHT22;24934;52.752;6.964;2023-04-22T03:26:55;7.90;99.90
39219;DHT22;24934;52.752;6.964;2023-04-22T03:29:20;7.80;99.90
39219;DHT22;24934;52.752;6.964;2023-04-22T03:31:49;7.70;99.90
39219;DHT22;24934;52.752;6.964;2023-04-22T03:34:14;7.70;99.90
39219;DHT22;24934;52.752;6.964;2023-04-22T03:36:40;7.60;99.90
39219;DHT22;24934;52.752;6.964;2023-04-22T03:39:06;7.60;99.90
39219;DHT22;24934;52.752;6.964;2023-04-22T03:41:32;7.70;99.90
39219;DHT22;24934;52.752;6.964;2023-04-22T03:44:01;7.90;99.90
39219;DHT22;24934;52.752;6.964;2023-04-22T03:46:26;8.00;99.90
39219;DHT22;24934;52.752;6.964;2023-04-22T03:48:55;8.10;99.90
39219;DHT22;24934;52.752;6.964;2023-04-22T03:51:21;8.00;99.90
39219;DHT22;24934;52.752;6.964;2023-04-22T03:53:47;8.00;99.90
39219;DHT22;24934;52.752;6.964;2023-04-22T03:56:13;7.90;99.90
39219;DHT22;24934;52.752;6.964;2023-04-22T03:58:41;7.80;99.90
39219;DHT22;24934;52.752;6.964;2023-04-22T04:01:07;7.70;99.90
39219;DHT22;24934;52.752;6.964;2023-04-22T04:03:32;7.60;99.90
39219;DHT22;24934;52.752;6.964;2023-04-22T04:05:58;7.50;99.90
39219;DHT22;24934;52.752;6.964;2023-04-22T04:08:24;7.50;99.90
39219;DHT22;24934;52.752;6.964;2023-04-22T04:10:50;7.50;99.90
39219;DHT22;24934;52.752;6.964;2023-04-22T04:13:15;7.40;99.90
39219;DHT22;24934;52.752;6.964;2023-04-22T04:15:41;7.40;99.90
39219;DHT22;24934;52.752;6.964;2023-04-22T04:18:07;7.40;99.90
39219;DHT22;24934;52.752;6.964;2023-04-22T04:20:33;7.40;99.90
39219;DHT22;24934;52.752;6.964;2023-04-22T04:22:59;7.50;99.90
39219;DHT22;24934;52.752;6.964;2023-04-22T04:25:25;7.60;99.90
39219;DHT22;24934;52.752;6.964;2023-04-22T04:27:51;7.90;99.90
39219;DHT22;24934;52.752;6.964;2023-04-22T04:30:16;7.90;99.90
39219;DHT22;24934;52.752;6.964;2023-04-22T04:32:42;7.90;99.90
39219;DHT22;24934;52.752;6.964;2023-04-22T04:35:10;8.00;99.90
39219;DHT22;24934;52.752;6.964;2023-04-22T04:37:41;7.90;99.90
39219;DHT22;24934;52.752;6.964;2023-04-22T04:40:07;8.00;99.90
39219;DHT22;24934;52.752;6.964;2023-04-22T04:42:34;8.00;99.90
39219;DHT22;24934;52.752;6.964;2023-04-22T04:45:00;8.10;99.90
39219;DHT22;24934;52.752;6.964;2023-04-22T04:47:25;8.20;99.90
39219;DHT22;24934;52.752;6.964;2023-04-22T04:49:51;8.30;99.90
39219;DHT22;24934;52.752;6.964;2023-04-22T04:52:18;8.30;99.90
39219;DHT22;24934;52.752;6.964;2023-04-22T04:54:44;8.40;99.90
39219;DHT22;24934;52.752;6.964;2023-04-22T04:57:12;8.40;99.90
39219;DHT22;24934;52.752;6.964;2023-04-22T04:59:38;8.50;99.90
39219;DHT22;24934;52.752;6.964;2023-04-22T05:02:04;8.60;99.90
39219;DHT22;24934;52.752;6.964;2023-04-22T05:04:29;8.60;99.90
39219;DHT22;24934;52.752;6.964;2023-04-22T05:06:55;8.60;99.90
39219;DHT22;24934;52.752;6.964;2023-04-22T05:09:21;8.70;99.90
39219;DHT22;24934;52.752;6.964;2023-04-22T05:11:46;8.70;99.90
39219;DHT22;24934;52.752;6.964;2023-04-22T05:14:12;8.70;99.90
39219;DHT22;24934;52.752;6.964;2023-04-22T05:16:40;8.80;99.90
39219;DHT22;24934;52.752;6.964;2023-04-22T05:19:06;8.80;99.90
39219;DHT22;24934;52.752;6.964;2023-04-22T05:21:31;8.80;99.90
39219;DHT22;24934;52.752;6.964;2023-04-22T05:23:57;8.90;99.90
39219;DHT22;24934;52.752;6.964;2023-04-22T05:26:24;8.90;99.90
39219;DHT22;24934;52.752;6.964;2023-04-22T05:28:50;9.00;99.90
39219;DHT22;24934;52.752;6.964;2023-04-22T05:31:18;9.00;99.90
39219;DHT22;24934;52.752;6.964;2023-04-22T05:33:44;9.10;99.90
39219;DHT22;24934;52.752;6.964;2023-04-22T05:36:10;9.10;99.90
39219;DHT22;24934;52.752;6.964;2023-04-22T05:38:36;9.20;99.90
39219;DHT22;24934;52.752;6.964;2023-04-22T05:41:01;9.30;99.90
39219;DHT22;24934;52.752;6.964;2023-04-22T05:43:27;9.30;99.90
39219;DHT22;24934;52.752;6.964;2023-04-22T05:45:53;9.40;99.90
39219;DHT22;24934;52.752;6.964;2023-04-22T05:48:18;9.50;99.90
39219;DHT22;24934;52.752;6.964;2023-04-22T05:50:44;9.60;99.90
39219;DHT22;24934;52.752;6.964;2023-04-22T05:53:09;9.60;99.90
39219;DHT22;24934;52.752;6.964;2023-04-22T05:55:35;9.70;99.90
39219;DHT22;24934;52.752;6.964;2023-04-22T05:58:01;9.70;99.90
39219;DHT22;24934;52.752;6.964;2023-04-22T06:00:30;9.80;99.90
39219;DHT22;24934;52.752;6.964;2023-04-22T06:02:55;9.90;99.90
39219;DHT22;24934;52.752;6.964;2023-04-22T06:05:21;9.90;99.90
39219;DHT22;24934;52.752;6.964;2023-04-22T06:07:46;10.00;99.90
39219;DHT22;24934;52.752;6.964;2023-04-22T06:10:12;10.00;99.90
39219;DHT22;24934;52.752;6.964;2023-04-22T06:12:38;10.10;99.90
39219;DHT22;24934;52.752;6.964;2023-04-22T06:15:04;10.10;99.90
39219;DHT22;24934;52.752;6.964;2023-04-22T06:17:30;10.10;99.90
39219;DHT22;24934;52.752;6.964;2023-04-22T06:19:55;10.10;99.90
39219;DHT22;24934;52.752;6.964;2023-04-22T06:22:21;10.20;99.90
39219;DHT22;24934;52.752;6.964;2023-04-22T06:24:46;10.30;99.90
39219;DHT22;24934;52.752;6.964;2023-04-22T06:27:12;10.30;99.90
39219;DHT22;24934;52.752;6.964;2023-04-22T06:29:40;10.40;99.90
39219;DHT22;24934;52.752;6.964;2023-04-22T06:32:06;10.40;99.90
39219;DHT22;24934;52.752;6.964;2023-04-22T06:34:32;10.40;99.90
39219;DHT22;24934;52.752;6.964;2023-04-22T06:36:59;10.50;99.90
39219;DHT22;24934;52.752;6.964;2023-04-22T06:39:27;10.50;99.90
39219;DHT22;24934;52.752;6.964;2023-04-22T06:41:53;10.60;99.90
39219;DHT22;24934;52.752;6.964;2023-04-22T06:44:20;10.60;99.90
39219;DHT22;24934;52.752;6.964;2023-04-22T06:46:46;10.70;99.90
39219;DHT22;24934;52.752;6.964;2023-04-22T06:49:11;10.80;99.90
39219;DHT22;24934;52.752;6.964;2023-04-22T06:51:37;10.90;99.90
39219;DHT22;24934;52.752;6.964;2023-04-22T06:54:03;11.00;99.90
39219;DHT22;24934;52.752;6.964;2023-04-22T06:56:29;11.00;99.90
39219;DHT22;24934;52.752;6.964;2023-04-22T06:58:55;11.20;99.90
39219;DHT22;24934;52.752;6.964;2023-04-22T07:01:20;11.20;99.90
39219;DHT22;24934;52.752;6.964;2023-04-22T07:03:46;11.30;99.90
39219;DHT22;24934;52.752;6.964;2023-04-22T07:06:12;11.40;99.90
39219;DHT22;24934;52.752;6.964;2023-04-22T07:08:40;11.50;99.90
39219;DHT22;24934;52.752;6.964;2023-04-22T07:11:06;11.60;99.90
39219;DHT22;24934;52.752;6.964;2023-04-22T07:13:31;11.80;99.90
39219;DHT22;24934;52.752;6.964;2023-04-22T07:15:59;11.90;99.90
39219;DHT22;24934;52.752;6.964;2023-04-22T07:18:25;12.00;99.90
39219;DHT22;24934;52.752;6.964;2023-04-22T07:20:51;12.00;99.90
39219;DHT22;24934;52.752;6.964;2023-04-22T07:23:17;12.10;99.90
39219;DHT22;24934;52.752;6.964;2023-04-22T07:25:45;12.20;99.90
39219;DHT22;24934;52.752;6.964;2023-04-22T07:28:11;12.20;99.90
39219;DHT22;24934;52.752;6.964;2023-04-22T07:30:37;12.40;99.90
39219;DHT22;24934;52.752;6.964;2023-04-22T07:33:02;12.40;99.90
39219;DHT22;24934;52.752;6.964;2023-04-22T07:35:28;12.50;99.90
39219;DHT22;24934;52.752;6.964;2023-04-22T07:37:56;12.60;99.90
39219;DHT22;24934;52.752;6.964;2023-04-22T07:40:21;12.80;99.90
39219;DHT22;24934;52.752;6.964;2023-04-22T07:42:47;12.90;99.90
39219;DHT22;24934;52.752;6.964;2023-04-22T07:45:13;13.20;99.90
39219;DHT22;24934;52.752;6.964;2023-04-22T07:47:38;13.50;99.90
39219;DHT22;24934;52.752;6.964;2023-04-22T07:50:04;13.70;99.90
39219;DHT22;24934;52.752;6.964;2023-04-22T07:52:30;14.00;99.90
39219;DHT22;24934;52.752;6.964;2023-04-22T07:54:56;14.30;99.90
39219;DHT22;24934;52.752;6.964;2023-04-22T07:57:22;14.70;99.90
39219;DHT22;24934;52.752;6.964;2023-04-22T07:59:48;14.90;99.90
39219;DHT22;24934;52.752;6.964;2023-04-22T08:02:14;15.40;99.90
39219;DHT22;24934;52.752;6.964;2023-04-22T08:04:40;15.60;99.90
39219;DHT22;24934;52.752;6.964;2023-04-22T08:07:05;15.60;99.90
39219;DHT22;24934;52.752;6.964;2023-04-22T08:09:31;15.90;99.90
39219;DHT22;24934;52.752;6.964;2023-04-22T08:11:57;16.20;99.90
39219;DHT22;24934;52.752;6.964;2023-04-22T08:14:23;16.20;99.90
39219;DHT22;24934;52.752;6.964;2023-04-22T08:16:50;16.60;99.90
39219;DHT22;24934;52.752;6.964;2023-04-22T08:19:17;17.40;99.90
39219;DHT22;24934;52.752;6.964;2023-04-22T08:21:43;18.20;99.90
39219;DHT22;24934;52.752;6.964;2023-04-22T08:24:09;19.00;99.90
39219;DHT22;24934;52.752;6.964;2023-04-22T08:26:35;19.40;99.90
39219;DHT22;24934;52.752;6.964;2023-04-22T08:29:02;20.40;99.90
39219;DHT22;24934;52.752;6.964;2023-04-22T08:31:28;20.40;99.90
39219;DHT22;24934;52.752;6.964;2023-04-22T08:33:54;20.20;99.90
39219;DHT22;24934;52.752;6.964;2023-04-22T08:36:20;20.00;99.90
39219;DHT22;24934;52.752;6.964;2023-04-22T08:38:48;20.10;99.90
39219;DHT22;24934;52.752;6.964;2023-04-22T08:41:14;20.30;99.90
39219;DHT22;24934;52.752;6.964;2023-04-22T08:43:40;20.20;99.90
39219;DHT22;24934;52.752;6.964;2023-04-22T08:46:07;20.20;99.90
39219;DHT22;24934;52.752;6.964;2023-04-22T08:48:32;20.30;99.90
39219;DHT22;24934;52.752;6.964;2023-04-22T08:50:59;20.30;99.90
39219;DHT22;24934;52.752;6.964;2023-04-22T08:53:27;20.70;99.90
39219;DHT22;24934;52.752;6.964;2023-04-22T08:55:55;21.50;99.90
39219;DHT22;24934;52.752;6.964;2023-04-22T08:58:21;22.20;99.90
39219;DHT22;24934;52.752;6.964;2023-04-22T09:00:47;22.70;99.90
39219;DHT22;24934;52.752;6.964;2023-04-22T09:03:14;22.70;99.90
39219;DHT22;24934;52.752;6.964;2023-04-22T09:05:40;23.10;99.90
39219;DHT22;24934;52.752;6.964;2023-04-22T09:08:10;23.20;99.90
39219;DHT22;24934;52.752;6.964;2023-04-22T09:10:37;22.70;99.90
39219;DHT22;24934;52.752;6.964;2023-04-22T09:13:04;22.90;99.90
39219;DHT22;24934;52.752;6.964;2023-04-22T09:15:31;22.90;99.90
39219;DHT22;24934;52.752;6.964;2023-04-22T09:17:58;23.00;99.90
39219;DHT22;24934;52.752;6.964;2023-04-22T09:20:28;23.00;99.90
39219;DHT22;24934;52.752;6.964;2023-04-22T09:22:55;23.30;99.90
39219;DHT22;24934;52.752;6.964;2023-04-22T09:25:26;22.90;99.90
39219;DHT22;24934;52.752;6.964;2023-04-22T09:27:54;22.40;99.90
39219;DHT22;24934;52.752;6.964;2023-04-22T09:30:27;22.10;99.90
39219;DHT22;24934;52.752;6.964;2023-04-22T09:32:59;22.20;99.90
39219;DHT22;24934;52.752;6.964;2023-04-22T09:35:28;22.50;99.90
39219;DHT22;24934;52.752;6.964;2023-04-22T09:37:55;22.60;99.90
39219;DHT22;24934;52.752;6.964;2023-04-22T09:40:24;23.00;99.90
39219;DHT22;24934;52.752;6.964;2023-04-22T09:42:52;23.20;99.90
39219;DHT22;24934;52.752;6.964;2023-04-22T09:45:31;22.70;99.90
39219;DHT22;24934;52.752;6.964;2023-04-22T09:50:31;21.30;99.90
39219;DHT22;24934;52.752;6.964;2023-04-22T09:53:02;20.80;99.90
39219;DHT22;24934;52.752;6.964;2023-04-22T09:55:30;20.80;99.90
39219;DHT22;24934;52.752;6.964;2023-04-22T09:57:57;21.20;99.90
39219;DHT22;24934;52.752;6.964;2023-04-22T10:00:27;21.20;99.90
39219;DHT22;24934;52.752;6.964;2023-04-22T10:02:54;20.50;99.90
39219;DHT22;24934;52.752;6.964;2023-04-22T10:05:19;20.30;99.90
39219;DHT22;24934;52.752;6.964;2023-04-22T10:07:48;20.90;99.90
39219;DHT22;24934;52.752;6.964;2023-04-22T10:10:14;21.60;99.90
39219;DHT22;24934;52.752;6.964;2023-04-22T10:12:40;22.40;99.90
39219;DHT22;24934;52.752;6.964;2023-04-22T10:15:06;23.20;99.90
39219;DHT22;24934;52.752;6.964;2023-04-22T10:17:35;23.70;99.90
39219;DHT22;24934;52.752;6.964;2023-04-22T10:20:04;23.60;99.90
39219;DHT22;24934;52.752;6.964;2023-04-22T10:22:33;23.60;99.90
39219;DHT22;24934;52.752;6.964;2023-04-22T10:25:07;23.20;99.90
39219;DHT22;24934;52.752;6.964;2023-04-22T10:27:35;23.10;99.90
39219;DHT22;24934;52.752;6.964;2023-04-22T10:30:00;23.60;99.90
39219;DHT22;24934;52.752;6.964;2023-04-22T10:32:26;23.20;99.90
39219;DHT22;24934;52.752;6.964;2023-04-22T10:35:12;23.10;99.90
39219;DHT22;24934;52.752;6.964;2023-04-22T10:37:43;23.30;99.90
39219;DHT22;24934;52.752;6.964;2023-04-22T10:40:15;23.60;99.90
39219;DHT22;24934;52.752;6.964;2023-04-22T10:42:47;24.00;99.90
39219;DHT22;24934;52.752;6.964;2023-04-22T10:45:14;24.00;99.90
39219;DHT22;24934;52.752;6.964;2023-04-22T10:47:40;24.20;99.90
39219;DHT22;24934;52.752;6.964;2023-04-22T10:52:35;24.50;99.90
39219;DHT22;24934;52.752;6.964;2023-04-22T10:55:01;24.90;99.90
39219;DHT22;24934;52.752;6.964;2023-04-22T10:57:39;24.80;99.90
39219;DHT22;24934;52.752;6.964;2023-04-22T11:00:28;24.20;99.90
39219;DHT22;24934;52.752;6.964;2023-04-22T11:03:08;24.20;99.90
39219;DHT22;24934;52.752;6.964;2023-04-22T11:05:36;24.40;99.90
39219;DHT22;24934;52.752;6.964;2023-04-22T11:11:06;23.10;99.90
39219;DHT22;24934;52.752;6.964;2023-04-22T11:13:32;23.10;99.90
39219;DHT22;24934;52.752;6.964;2023-04-22T11:15:58;22.70;99.90
39219;DHT22;24934;52.752;6.964;2023-04-22T11:18:25;22.50;99.90
39219;DHT22;24934;52.752;6.964;2023-04-22T11:20:52;22.70;99.90
39219;DHT22;24934;52.752;6.964;2023-04-22T11:23:26;22.90;99.90
39219;DHT22;24934;52.752;6.964;2023-04-22T11:26:02;22.70;99.90
39219;DHT22;24934;52.752;6.964;2023-04-22T11:28:29;23.10;99.90
39219;DHT22;24934;52.752;6.964;2023-04-22T11:31:08;23.40;99.90
39219;DHT22;24934;52.752;6.964;2023-04-22T11:33:36;23.30;99.90
39219;DHT22;24934;52.752;6.964;2023-04-22T11:36:04;23.40;99.90
39219;DHT22;24934;52.752;6.964;2023-04-22T11:38:30;23.40;99.90
39219;DHT22;24934;52.752;6.964;2023-04-22T11:40:56;23.00;99.90
39219;DHT22;24934;52.752;6.964;2023-04-22T11:43:22;22.70;99.90
39219;DHT22;24934;52.752;6.964;2023-04-22T11:45:48;22.40;99.90
39219;DHT22;24934;52.752;6.964;2023-04-22T11:48:14;22.20;99.90
39219;DHT22;24934;52.752;6.964;2023-04-22T11:50:41;22.10;99.90
39219;DHT22;24934;52.752;6.964;2023-04-22T11:55:39;21.90;99.90
39219;DHT22;24934;52.752;6.964;2023-04-22T11:58:10;21.90;99.90
39219;DHT22;24934;52.752;6.964;2023-04-22T12:00:39;22.30;99.90
39219;DHT22;24934;52.752;6.964;2023-04-22T12:03:16;22.50;99.90
39219;DHT22;24934;52.752;6.964;2023-04-22T12:05:44;22.80;99.90
39219;DHT22;24934;52.752;6.964;2023-04-22T12:08:12;23.10;99.90
39219;DHT22;24934;52.752;6.964;2023-04-22T12:10:41;22.60;99.90
39219;DHT22;24934;52.752;6.964;2023-04-22T12:13:07;22.90;99.90
39219;DHT22;24934;52.752;6.964;2023-04-22T12:15:37;23.00;99.90
39219;DHT22;24934;52.752;6.964;2023-04-22T12:18:03;22.80;99.90
39219;DHT22;24934;52.752;6.964;2023-04-22T12:20:35;22.30;99.90
39219;DHT22;24934;52.752;6.964;2023-04-22T12:23:02;22.70;99.90
39219;DHT22;24934;52.752;6.964;2023-04-22T12:25:28;22.90;99.90
39219;DHT22;24934;52.752;6.964;2023-04-22T12:27:54;22.90;99.90
39219;DHT22;24934;52.752;6.964;2023-04-22T12:30:22;22.60;99.90
39219;DHT22;24934;52.752;6.964;2023-04-22T12:32:49;22.20;99.90
39219;DHT22;24934;52.752;6.964;2023-04-22T12:35:15;22.20;99.90
39219;DHT22;24934;52.752;6.964;2023-04-22T12:37:41;22.40;99.90
39219;DHT22;24934;52.752;6.964;2023-04-22T12:40:07;22.30;99.90
39219;DHT22;24934;52.752;6.964;2023-04-22T12:42:34;22.40;99.90
39219;DHT22;24934;52.752;6.964;2023-04-22T12:44:59;22.60;99.90
39219;DHT22;24934;52.752;6.964;2023-04-22T12:47:25;22.90;99.90
39219;DHT22;24934;52.752;6.964;2023-04-22T12:49:51;23.00;99.90
39219;DHT22;24934;52.752;6.964;2023-04-22T12:52:19;22.70;99.90
39219;DHT22;24934;52.752;6.964;2023-04-22T12:54:45;22.60;99.90
39219;DHT22;24934;52.752;6.964;2023-04-22T12:57:11;22.50;99.90
39219;DHT22;24934;52.752;6.964;2023-04-22T12:59:36;22.30;99.90
39219;DHT22;24934;52.752;6.964;2023-04-22T13:02:02;22.20;99.90
39219;DHT22;24934;52.752;6.964;2023-04-22T13:04:29;22.10;99.90
39219;DHT22;24934;52.752;6.964;2023-04-22T13:06:55;22.60;99.90
39219;DHT22;24934;52.752;6.964;2023-04-22T13:09:25;22.80;99.90
39219;DHT22;24934;52.752;6.964;2023-04-22T13:11:51;22.80;99.90
39219;DHT22;24934;52.752;6.964;2023-04-22T13:14:17;22.90;99.90
39219;DHT22;24934;52.752;6.964;2023-04-22T13:16:44;22.70;99.90
39219;DHT22;24934;52.752;6.964;2023-04-22T13:19:09;23.20;99.90
39219;DHT22;24934;52.752;6.964;2023-04-22T13:21:35;23.80;99.90
39219;DHT22;24934;52.752;6.964;2023-04-22T13:24:02;24.20;99.90
39219;DHT22;24934;52.752;6.964;2023-04-22T13:26:27;24.90;99.90
39219;DHT22;24934;52.752;6.964;2023-04-22T13:28:53;24.70;99.90
39219;DHT22;24934;52.752;6.964;2023-04-22T13:31:19;24.10;99.90
39219;DHT22;24934;52.752;6.964;2023-04-22T13:33:44;23.30;99.90
39219;DHT22;24934;52.752;6.964;2023-04-22T13:36:11;22.70;99.90
39219;DHT22;24934;52.752;6.964;2023-04-22T13:38:37;22.30;99.90
39219;DHT22;24934;52.752;6.964;2023-04-22T13:41:03;22.10;99.90
39219;DHT22;24934;52.752;6.964;2023-04-22T13:43:28;22.00;99.90
39219;DHT22;24934;52.752;6.964;2023-04-22T13:45:54;22.00;99.90
39219;DHT22;24934;52.752;6.964;2023-04-22T13:48:20;21.90;99.90
39219;DHT22;24934;52.752;6.964;2023-04-22T13:50:45;21.90;99.90
39219;DHT22;24934;52.752;6.964;2023-04-22T13:53:11;21.80;99.90
39219;DHT22;24934;52.752;6.964;2023-04-22T13:55:38;21.80;99.90
39219;DHT22;24934;52.752;6.964;2023-04-22T13:58:04;21.60;99.90
39219;DHT22;24934;52.752;6.964;2023-04-22T14:00:31;21.50;99.90
39219;DHT22;24934;52.752;6.964;2023-04-22T14:02:57;21.20;99.90
39219;DHT22;24934;52.752;6.964;2023-04-22T14:05:23;21.00;99.90
39219;DHT22;24934;52.752;6.964;2023-04-22T14:07:52;20.80;99.90
39219;DHT22;24934;52.752;6.964;2023-04-22T14:10:17;20.70;99.90
39219;DHT22;24934;52.752;6.964;2023-04-22T14:12:45;20.50;99.90
39219;DHT22;24934;52.752;6.964;2023-04-22T14:15:11;20.40;99.90
39219;DHT22;24934;52.752;6.964;2023-04-22T14:17:38;20.40;99.90
39219;DHT22;24934;52.752;6.964;2023-04-22T14:20:04;20.30;99.90
39219;DHT22;24934;52.752;6.964;2023-04-22T14:22:30;20.40;99.90
39219;DHT22;24934;52.752;6.964;2023-04-22T14:24:56;20.60;99.90
39219;DHT22;24934;52.752;6.964;2023-04-22T14:27:22;20.70;99.90
39219;DHT22;24934;52.752;6.964;2023-04-22T14:29:47;20.80;99.90
39219;DHT22;24934;52.752;6.964;2023-04-22T14:32:17;20.90;99.90
39219;DHT22;24934;52.752;6.964;2023-04-22T14:34:43;21.00;99.90
39219;DHT22;24934;52.752;6.964;2023-04-22T14:37:10;21.00;99.90
39219;DHT22;24934;52.752;6.964;2023-04-22T14:39:35;20.90;99.90
39219;DHT22;24934;52.752;6.964;2023-04-22T14:42:02;20.80;99.90
39219;DHT22;24934;52.752;6.964;2023-04-22T14:44:31;20.90;99.90
39219;DHT22;24934;52.752;6.964;2023-04-22T14:46:57;20.80;99.90
39219;DHT22;24934;52.752;6.964;2023-04-22T14:49:23;20.70;99.90
39219;DHT22;24934;52.752;6.964;2023-04-22T14:51:51;20.80;99.90
39219;DHT22;24934;52.752;6.964;2023-04-22T14:54:17;20.80;99.90
39219;DHT22;24934;52.752;6.964;2023-04-22T14:56:48;20.90;99.90
39219;DHT22;24934;52.752;6.964;2023-04-22T14:59:16;20.70;99.90
39219;DHT22;24934;52.752;6.964;2023-04-22T15:01:41;20.60;99.90
39219;DHT22;24934;52.752;6.964;2023-04-22T15:04:07;20.50;99.90
39219;DHT22;24934;52.752;6.964;2023-04-22T15:06:33;20.40;99.90
39219;DHT22;24934;52.752;6.964;2023-04-22T15:08:58;20.40;99.90
39219;DHT22;24934;52.752;6.964;2023-04-22T15:11:24;20.30;99.90
39219;DHT22;24934;52.752;6.964;2023-04-22T15:13:49;20.30;99.90
39219;DHT22;24934;52.752;6.964;2023-04-22T15:16:15;20.20;99.90
39219;DHT22;24934;52.752;6.964;2023-04-22T15:18:45;20.00;99.90
39219;DHT22;24934;52.752;6.964;2023-04-22T15:21:10;19.80;99.90
39219;DHT22;24934;52.752;6.964;2023-04-22T15:23:36;19.40;99.90
39219;DHT22;24934;52.752;6.964;2023-04-22T15:26:01;18.60;99.90
39219;DHT22;24934;52.752;6.964;2023-04-22T15:28:27;17.80;99.90
39219;DHT22;24934;52.752;6.964;2023-04-22T15:30:53;17.40;99.90
39219;DHT22;24934;52.752;6.964;2023-04-22T15:33:18;17.00;99.90
39219;DHT22;24934;52.752;6.964;2023-04-22T15:35:44;16.70;99.90
39219;DHT22;24934;52.752;6.964;2023-04-22T15:38:12;16.50;99.90
39219;DHT22;24934;52.752;6.964;2023-04-22T15:40:41;16.40;99.90
39219;DHT22;24934;52.752;6.964;2023-04-22T15:43:09;16.30;99.90
39219;DHT22;24934;52.752;6.964;2023-04-22T15:45:36;16.10;99.90